Time;durP1;ratioP1;P1;durP2;ratioP2;P2;SDS_P1;SDS_P2;PMS_P1;PMS_P2;Temp;Humidity;BMP_temperature;BMP_pressure;BME280_temperature;BME280_humidity;BME280_pressure;Samples;Min_cycle;Max_cycle;Signal;HPM_P1;HPM_P2
2021/04/01 00:01:11;;;;;;;26.95;12.40;;;;;;;12.30;67.70;101493.47;4410914;32;20022;-76
2021/04/01 00:03:38;;;;;;;30.65;12.40;;;;;;;12.26;67.99;101495.53;4411129;32;20042;-75
2021/04/01 00:06:04;;;;;;;26.60;11.77;;;;;;;12.22;67.98;101509.75;4414034;32;20474;-75
2021/04/01 00:08:30;;;;;;;22.65;12.02;;;;;;;12.22;68.08;101504.09;4407221;32;20136;-75
2021/04/01 00:10:56;;;;;;;27.35;13.13;;;;;;;12.15;68.52;101498.56;4410209;32;20042;-75
2021/04/01 00:13:22;;;;;;;25.88;12.68;;;;;;;12.06;68.97;101513.25;4410783;32;20085;-75
2021/04/01 00:15:48;;;;;;;24.87;11.55;;;;;;;12.10;68.94;101501.91;4408466;32;20034;-75
2021/04/01 00:18:17;;;;;;;21.92;12.45;;;;;;;12.10;69.05;101510.38;4411458;32;20069;-76
2021/04/01 00:20:43;;;;;;;21.05;10.57;;;;;;;12.12;68.40;101519.19;4410551;32;20050;-74
2021/04/01 00:23:09;;;;;;;20.30;10.55;;;;;;;12.22;68.24;101514.59;4409791;32;20085;-75
2021/04/01 00:25:35;;;;;;;21.55;10.63;;;;;;;12.04;68.65;101517.72;4412831;32;20101;-75
2021/04/01 00:28:00;;;;;;;16.92;8.88;;;;;;;12.05;68.73;101514.47;4407848;32;20097;-75
2021/04/01 00:30:26;;;;;;;13.85;8.30;;;;;;;12.09;68.38;101528.53;4410204;32;20087;-75
2021/04/01 00:32:52;;;;;;;16.20;8.45;;;;;;;12.07;68.28;101533.78;4411020;32;20085;-73
2021/04/01 00:35:18;;;;;;;16.35;8.20;;;;;;;12.10;68.40;101533.72;4408337;32;20312;-75
2021/04/01 00:37:44;;;;;;;16.42;8.43;;;;;;;12.15;67.79;101543.72;4410936;32;20128;-75
2021/04/01 00:40:10;;;;;;;15.68;7.90;;;;;;;12.06;68.48;101532.22;4411094;32;20142;-74
2021/04/01 00:42:37;;;;;;;12.65;7.78;;;;;;;12.21;68.15;101541.22;4413596;32;20411;-75
2021/04/01 00:45:06;;;;;;;15.35;8.38;;;;;;;12.20;68.10;101545.25;4410132;32;20100;-75
2021/04/01 00:47:35;;;;;;;15.60;8.93;;;;;;;12.19;68.34;101540.84;4410964;32;20038;-75
2021/04/01 00:50:01;;;;;;;15.68;7.68;;;;;;;12.09;68.73;101549.06;4409330;32;20061;-74
2021/04/01 00:52:27;;;;;;;16.12;8.10;;;;;;;12.08;68.81;101547.47;4410232;32;20069;-75
2021/04/01 00:54:52;;;;;;;15.45;8.40;;;;;;;11.93;69.22;101546.13;4417395;32;20113;-75
2021/04/01 00:57:18;;;;;;;19.40;9.82;;;;;;;12.11;68.79;101554.28;4410051;32;20073;-74
2021/04/01 00:59:44;;;;;;;18.25;9.55;;;;;;;11.98;69.32;101556.94;4413985;32;20147;-74
2021/04/01 01:02:11;;;;;;;19.77;9.80;;;;;;;11.95;69.84;101557.78;4410625;32;20123;-75
2021/04/01 01:04:37;;;;;;;16.95;9.40;;;;;;;11.98;69.63;101562.56;4411504;32;20110;-74
2021/04/01 01:07:03;;;;;;;18.90;8.80;;;;;;;11.95;70.12;101554.16;4409705;32;20039;-75
2021/04/01 01:09:29;;;;;;;16.55;8.85;;;;;;;11.84;70.30;101564.78;4410605;32;20034;-75
2021/04/01 01:11:55;;;;;;;16.30;8.40;;;;;;;11.93;70.25;101567.88;4410908;32;20078;-74
2021/04/01 01:14:21;;;;;;;17.58;8.45;;;;;;;11.77;70.87;101559.28;4416172;32;20038;-74
2021/04/01 01:16:48;;;;;;;15.65;7.20;;;;;;;11.88;70.61;101559.91;4410968;32;20031;-74
2021/04/01 01:19:15;;;;;;;14.32;6.53;;;;;;;12.05;70.03;101564.44;4409738;32;20442;-75
2021/04/01 01:21:41;;;;;;;14.85;7.15;;;;;;;12.11;69.71;101559.91;4412553;32;20050;-75
2021/04/01 01:24:12;;;;;;;17.40;7.20;;;;;;;12.15;69.63;101554.22;4408572;32;20471;-75
2021/04/01 01:26:39;;;;;;;15.63;7.00;;;;;;;12.05;69.81;101562.44;4408981;32;20073;-74
2021/04/01 01:29:05;;;;;;;12.63;6.72;;;;;;;12.00;70.09;101562.91;4412263;32;20118;-74
2021/04/01 01:31:30;;;;;;;19.73;8.25;;;;;;;12.01;70.12;101570.19;4414807;32;20058;-75
2021/04/01 01:33:57;;;;;;;17.15;8.32;;;;;;;12.12;69.93;101557.91;4411898;32;20038;-73
2021/04/01 01:36:22;;;;;;;17.52;9.52;;;;;;;12.01;69.89;101570.19;4410922;32;20075;-74
2021/04/01 01:38:48;;;;;;;16.30;8.98;;;;;;;12.09;69.89;101566.00;4409215;32;20038;-74
2021/04/01 01:41:14;;;;;;;19.80;10.05;;;;;;;12.09;69.99;101570.84;4407688;32;20278;-73
2021/04/01 01:43:41;;;;;;;18.87;9.02;;;;;;;12.09;70.10;101571.63;4406954;32;20119;-74
2021/04/01 01:46:06;;;;;;;21.02;9.88;;;;;;;12.07;70.37;101568.47;4397831;32;20096;-74
2021/04/01 01:48:32;;;;;;;19.85;10.05;;;;;;;12.04;70.31;101569.31;4413727;32;20053;-75
2021/04/01 01:50:58;;;;;;;21.42;10.95;;;;;;;12.02;70.72;101570.94;4410379;32;20034;-74
2021/04/01 01:53:25;;;;;;;23.02;9.18;;;;;;;11.89;71.04;101573.59;4406450;32;20106;-74
2021/04/01 01:55:51;;;;;;;22.20;10.02;;;;;;;11.97;70.93;101580.69;4413768;32;20057;-73
2021/04/01 01:58:17;;;;;;;19.20;8.98;;;;;;;11.89;71.21;101572.78;4411517;32;20041;-73
2021/04/01 02:00:48;;;;;;;17.83;9.20;;;;;;;11.93;70.83;101581.97;4412912;32;20128;-73
2021/04/01 02:03:13;;;;;;;20.77;9.82;;;;;;;11.90;71.07;101588.47;4410215;32;20038;-74
2021/04/01 02:05:41;;;;;;;19.17;9.07;;;;;;;11.95;70.76;101580.34;4411422;32;20068;-73
2021/04/01 02:08:08;;;;;;;20.02;8.90;;;;;;;11.89;70.91;101584.06;4412103;32;20070;-74
2021/04/01 02:10:37;;;;;;;21.48;10.10;;;;;;;12.01;70.84;101589.91;4410122;32;20101;-73
2021/04/01 02:13:04;;;;;;;21.87;10.63;;;;;;;11.95;71.09;101594.44;4408808;32;20042;-73
2021/04/01 02:15:35;;;;;;;23.55;8.80;;;;;;;11.93;70.91;101590.44;4406506;32;20104;-75
2021/04/01 02:18:11;;;;;;;17.60;8.90;;;;;;;12.01;70.58;101591.94;4407856;32;20077;-73
2021/04/01 02:20:41;;;;;;;22.37;8.07;;;;;;;12.04;70.77;101585.44;4410321;32;20045;-75
2021/04/01 02:23:10;;;;;;;23.30;8.48;;;;;;;12.07;70.76;101591.03;4409028;32;20066;-74
2021/04/01 02:25:36;;;;;;;24.98;7.60;;;;;;;11.94;70.66;101594.88;4393973;32;20099;-73
2021/04/01 02:28:02;;;;;;;20.02;6.90;;;;;;;11.87;70.99;101594.97;4408246;32;20033;-74
2021/04/01 02:30:28;;;;;;;20.92;8.88;;;;;;;11.73;71.27;101603.66;4395612;32;20481;-74
2021/04/01 02:32:54;;;;;;;17.45;7.87;;;;;;;11.79;70.70;101601.97;4415873;32;20106;-74
2021/04/01 02:35:20;;;;;;;24.12;8.93;;;;;;;11.99;70.15;101608.47;4396550;32;20085;-73
2021/04/01 02:37:46;;;;;;;18.42;8.55;;;;;;;12.04;69.58;101611.62;4406528;32;20076;-74
2021/04/01 02:40:12;;;;;;;19.55;9.18;;;;;;;12.02;69.85;101607.63;4406026;32;20464;-73
2021/04/01 02:42:38;;;;;;;21.23;8.30;;;;;;;11.93;70.41;101618.66;4416678;32;20105;-74
2021/04/01 02:45:04;;;;;;;23.05;7.82;;;;;;;11.79;70.42;101614.03;4410277;32;20532;-74
2021/04/01 02:47:30;;;;;;;19.70;7.32;;;;;;;11.69;70.49;101612.16;4407276;32;20112;-74
2021/04/01 02:49:56;;;;;;;26.55;7.05;;;;;;;11.61;70.44;101613.47;4400981;32;20156;-74
2021/04/01 02:52:21;;;;;;;21.67;7.12;;;;;;;11.60;70.82;101614.69;4396462;32;20438;-73
2021/04/01 02:54:47;;;;;;;24.40;6.43;;;;;;;11.58;70.80;101621.97;4408237;32;20097;-73
2021/04/01 02:57:15;;;;;;;18.48;6.07;;;;;;;11.53;71.10;101619.63;4414181;32;20381;-72
2021/04/01 02:59:41;;;;;;;26.75;6.70;;;;;;;11.57;71.04;101620.37;4409479;32;20137;-73
2021/04/01 03:02:09;;;;;;;18.12;5.18;;;;;;;11.47;71.50;101622.12;4410277;32;20135;-73
2021/04/01 03:04:35;;;;;;;16.83;5.50;;;;;;;11.50;71.78;101618.47;4410257;32;20638;-74
2021/04/01 03:07:01;;;;;;;20.92;5.57;;;;;;;11.50;71.97;101614.81;4411396;32;20108;-74
2021/04/01 03:09:27;;;;;;;18.75;5.37;;;;;;;11.57;71.11;101621.16;4411858;32;20078;-74
2021/04/01 03:11:53;;;;;;;25.02;6.60;;;;;;;11.64;70.65;101620.31;4413518;32;20129;-74
2021/04/01 03:14:19;;;;;;;23.38;6.03;;;;;;;11.64;70.36;101620.31;4411385;32;20148;-73
2021/04/01 03:16:44;;;;;;;27.08;8.10;;;;;;;11.67;70.37;101617.44;4417352;32;20595;-74
2021/04/01 03:19:10;;;;;;;20.12;7.28;;;;;;;11.77;70.12;101616.50;4413303;32;20109;-74
2021/04/01 03:21:36;;;;;;;21.20;7.45;;;;;;;11.79;69.62;101627.34;4411198;32;20070;-76
2021/04/01 03:24:01;;;;;;;28.25;7.28;;;;;;;11.74;69.85;101634.25;4409514;32;20466;-74
2021/04/01 03:26:27;;;;;;;32.78;7.60;;;;;;;11.80;69.43;101640.22;4411238;32;20080;-75
2021/04/01 03:28:53;;;;;;;24.30;7.82;;;;;;;11.73;69.84;101638.28;4415559;32;20052;-74
2021/04/01 03:31:19;;;;;;;21.87;7.00;;;;;;;11.73;70.30;101634.69;4413927;32;20046;-74
2021/04/01 03:33:45;;;;;;;21.30;6.68;;;;;;;11.75;70.54;101637.84;4411378;32;20041;-74
2021/04/01 03:36:12;;;;;;;17.60;5.90;;;;;;;11.65;69.95;101642.44;4416418;32;20108;-74
2021/04/01 03:38:38;;;;;;;25.83;5.95;;;;;;;11.59;69.67;101644.09;4409345;32;20096;-73
2021/04/01 03:41:04;;;;;;;15.07;5.50;;;;;;;11.42;69.72;101650.00;4411385;32;20057;-73
2021/04/01 03:43:30;;;;;;;16.15;5.32;;;;;;;11.54;69.46;101646.59;4409666;32;20062;-73
2021/04/01 03:45:55;;;;;;;21.48;5.22;;;;;;;11.49;69.60;101649.88;4413170;32;20076;-74
2021/04/01 03:48:22;;;;;;;19.90;5.18;;;;;;;11.52;69.47;101649.03;4411694;32;20093;-74
2021/04/01 03:50:48;;;;;;;25.70;6.12;;;;;;;11.56;69.38;101658.25;4412441;32;20060;-73
2021/04/01 03:53:14;;;;;;;25.90;5.82;;;;;;;11.61;68.78;101657.78;4409204;32;20414;-73
2021/04/01 03:55:42;;;;;;;22.10;5.37;;;;;;;11.64;68.47;101656.97;4411525;32;20130;-75
2021/04/01 04:11:47;;;;;;;33.03;5.82;;;;;;;11.62;70.16;101670.69;4001632;31;15013893;-76
2021/04/01 04:16:57;;;;;;;27.25;6.82;;;;;;;11.71;69.48;101679.41;3984238;32;15022609;-74
2021/04/01 04:19:22;;;;;;;35.72;6.32;;;;;;;11.71;69.48;101679.41;4441355;32;20103;-74
2021/04/01 04:21:49;;;;;;;29.20;6.60;;;;;;;11.32;70.42;101684.75;4443134;32;20037;-73
2021/04/01 04:24:14;;;;;;;25.80;6.80;;;;;;;11.29;70.67;101674.31;4442251;32;20132;-74
2021/04/01 04:26:41;;;;;;;28.23;6.75;;;;;;;11.28;70.04;101679.12;4440599;32;20061;-73
2021/04/01 04:29:06;;;;;;;22.13;7.57;;;;;;;11.23;69.50;101682.41;4436854;32;20752;-76
2021/04/01 04:31:32;;;;;;;26.37;7.95;;;;;;;11.16;68.55;101690.16;4442292;32;20068;-75
2021/04/01 04:33:57;;;;;;;21.52;6.68;;;;;;;11.12;68.21;101686.56;4440950;32;20045;-76
2021/04/01 04:36:24;;;;;;;24.60;6.57;;;;;;;11.12;67.72;101686.56;4442688;32;20116;-75
2021/04/01 04:38:49;;;;;;;26.37;6.78;;;;;;;10.96;67.83;101694.81;4440005;32;20157;-76
2021/04/01 04:41:15;;;;;;;23.08;6.78;;;;;;;10.93;67.77;101696.44;4440191;32;20073;-75
2021/04/01 04:43:42;;;;;;;25.85;7.05;;;;;;;10.97;67.61;101699.22;4441578;32;20060;-75
2021/04/01 04:46:08;;;;;;;24.23;6.15;;;;;;;10.94;68.46;101702.88;4441193;32;20148;-76
2021/04/01 04:48:34;;;;;;;22.60;5.87;;;;;;;10.97;69.19;101711.28;4442647;32;20033;-73
2021/04/01 04:50:59;;;;;;;17.20;5.87;;;;;;;10.88;69.42;101710.97;4441869;32;20087;-73
2021/04/01 04:53:26;;;;;;;20.52;6.10;;;;;;;10.90;69.82;101705.72;4441148;32;20037;-73
2021/04/01 04:56:24;;;;;;;17.85;5.55;;;;;;;10.87;69.91;101717.84;4435429;32;20029;-73
2021/04/01 04:58:47;;;;;;;;;;;;;;;10.82;70.50;101715.47;4441780;32;20056;-72
2021/04/01 05:04:38;;;;;;;22.25;5.80;;;;;;;10.84;70.46;101717.84;4434595;32;19952;-73
2021/04/01 05:09:27;;;;;;;22.70;6.57;;;;;;;11.09;70.28;101724.03;3986470;32;15023126;-73
2021/04/01 05:11:53;;;;;;;18.05;5.82;;;;;;;11.09;70.28;101724.03;4443071;32;20373;-73
2021/04/01 05:14:19;;;;;;;20.48;5.82;;;;;;;10.63;70.98;101724.47;4442272;32;20033;-73
2021/04/01 05:16:45;;;;;;;28.38;5.85;;;;;;;10.55;72.05;101725.75;4443650;32;20098;-73
2021/04/01 05:19:12;;;;;;;18.70;6.18;;;;;;;10.68;72.48;101726.06;4441380;32;20228;-72
2021/04/01 05:24:26;;;;;;;22.90;5.35;;;;;;;10.61;73.67;101729.72;4441899;32;20062;-73
2021/04/01 05:29:33;;;;;;;24.70;6.53;;;;;;;10.74;73.16;101735.66;3943647;32;15023601;-76
2021/04/01 05:32:01;;;;;;;19.42;6.30;;;;;;;10.59;73.41;101731.34;4395493;32;20391;-76
2021/04/01 05:34:27;;;;;;;22.08;5.65;;;;;;;10.53;73.90;101727.38;4394288;32;20080;-75
2021/04/01 05:36:54;;;;;;;14.75;5.40;;;;;;;10.57;73.46;101733.78;4397172;32;20137;-76
2021/04/01 05:39:24;;;;;;;20.70;5.53;;;;;;;10.59;72.82;101734.97;4393540;32;20120;-75
2021/04/01 05:41:52;;;;;;;17.95;5.00;;;;;;;10.57;72.42;101740.22;4395545;32;20160;-75
2021/04/01 06:00:48;;;;;;;15.75;3.70;;;;;;;10.75;71.01;101773.84;3982573;32;15023992;-73
2021/04/01 06:03:49;;;;;;;12.95;4.47;;;;;;;10.75;71.01;101773.84;4432012;32;20029;-72
2021/04/01 06:08:46;;;;;;;22.13;4.68;;;;;;;10.62;71.26;101779.19;4004355;31;15015949;-73
2021/04/01 06:11:12;;;;;;;19.00;5.45;;;;;;;10.64;71.26;101778.75;4463743;32;20072;-74
2021/04/01 06:13:57;;;;;;;15.93;4.00;;;;;;;10.22;71.58;101774.25;4462722;32;20208;-73
2021/04/01 06:16:24;;;;;;;16.85;4.60;;;;;;;10.32;71.23;101769.75;4465228;32;20135;-75
2021/04/01 06:18:55;;;;;;;21.77;5.85;;;;;;;10.41;71.60;101775.72;4462479;32;20033;-74
2021/04/01 06:21:26;;;;;;;19.12;6.55;;;;;;;10.45;72.17;101776.47;4466923;32;20156;-74
2021/04/01 06:24:06;;;;;;;17.20;5.07;;;;;;;10.39;72.00;101776.13;4463458;32;20431;-73
2021/04/01 06:26:32;;;;;;;14.50;4.45;;;;;;;10.43;71.93;101787.38;4461343;32;20143;-74
2021/04/01 06:29:02;;;;;;;13.48;3.33;;;;;;;10.49;71.07;101789.31;4465080;32;20176;-75
2021/04/01 06:31:39;;;;;;;10.52;3.22;;;;;;;10.39;70.42;101789.37;4462259;32;20477;-73
2021/04/01 06:34:06;;;;;;;10.45;4.05;;;;;;;10.32;70.58;101800.69;4466763;32;20059;-75
2021/04/01 06:36:34;;;;;;;12.50;4.12;;;;;;;10.33;70.61;101796.66;4461024;32;20328;-75
2021/04/01 06:39:00;;;;;;;16.52;4.12;;;;;;;10.43;71.07;101793.78;4467758;32;20076;-74
2021/04/01 06:41:29;;;;;;;11.77;4.10;;;;;;;10.41;70.85;101807.47;4459892;32;20133;-74
2021/04/01 06:46:42;;;;;;;15.13;4.93;;;;;;;10.33;71.58;101808.72;3976006;32;15022592;-77
2021/04/01 06:52:08;;;;;;;6.68;2.12;;;;;;;10.37;71.44;101817.94;4430843;32;20042;-76
2021/04/01 06:54:42;;;;;;;9.00;2.70;;;;;;;10.25;70.92;101820.44;4428334;32;20034;-76
2021/04/01 06:57:27;;;;;;;8.88;2.72;;;;;;;10.24;70.37;101818.84;4421268;32;20519;-74
2021/04/01 07:00:09;;;;;;;8.13;2.90;;;;;;;10.20;69.94;101821.66;4431990;32;20058;-74
2021/04/01 07:02:40;;;;;;;8.98;4.05;;;;;;;10.31;69.65;101822.41;4412120;32;20207;-75
2021/04/01 07:05:20;;;;;;;12.07;4.22;;;;;;;10.18;68.99;101826.91;4404991;32;20105;-74
2021/04/01 07:07:54;;;;;;;9.00;3.60;;;;;;;10.28;68.64;101828.06;4416068;32;20045;-74
2021/04/01 07:13:09;;;;;;;11.23;2.97;;;;;;;10.48;68.69;101838.38;4412978;32;20134;-75
2021/04/01 07:15:39;;;;;;;9.40;3.33;;;;;;;10.43;68.31;101835.22;4402939;32;20083;-74
2021/04/01 07:18:27;;;;;;;13.38;3.15;;;;;;;10.42;68.43;101839.22;4415552;32;20203;-76
2021/04/01 07:48:45;;;;;;;16.87;3.50;;;;;;;10.86;67.93;101868.28;4416962;32;20089;-75
2021/04/01 07:51:38;;;;;;;11.02;3.47;;;;;;;10.96;66.75;101878.69;4419543;32;20053;-75
2021/04/01 07:54:07;;;;;;;10.38;3.50;;;;;;;11.03;66.25;101878.63;4420324;32;20132;-75
2021/04/01 07:56:41;;;;;;;12.13;3.58;;;;;;;11.02;66.91;101881.84;4420875;32;20061;-75
2021/04/01 07:59:52;;;;;;;12.45;4.10;;;;;;;11.05;67.01;101892.31;4420124;32;20673;-76
2021/04/01 08:04:45;;;;;;;7.35;2.90;;;;;;;11.53;64.35;101899.53;3977159;32;15024564;-75
2021/04/01 08:07:12;;;;;;;8.30;2.30;;;;;;;11.53;64.35;101899.53;4432879;32;20549;-76
2021/04/01 08:09:41;;;;;;;11.38;2.17;;;;;;;11.04;65.36;101888.66;4434229;32;20028;-75
2021/04/01 08:12:27;;;;;;;12.00;2.33;;;;;;;11.13;64.28;101899.47;4434531;32;20087;-76
2021/04/01 08:15:04;;;;;;;5.95;1.87;;;;;;;11.06;64.13;101899.53;4433913;32;20658;-76
2021/04/01 08:17:43;;;;;;;7.57;1.83;;;;;;;11.22;63.57;101900.59;4435796;32;20529;-76
2021/04/01 08:20:16;;;;;;;8.93;2.70;;;;;;;11.19;64.73;101909.88;4435262;32;20057;-75
2021/04/01 08:22:45;;;;;;;11.10;2.40;;;;;;;11.21;64.64;101903.84;4434465;32;20081;-77
2021/04/01 08:25:14;;;;;;;11.10;2.42;;;;;;;11.08;64.51;101917.59;4435311;32;20112;-75
2021/04/01 08:27:54;;;;;;;10.45;3.08;;;;;;;11.10;63.94;101909.56;4434244;32;20088;-76
2021/04/01 08:35:57;;;;;;;10.37;3.33;;;;;;;11.61;64.02;101923.62;3991132;31;15015970;-76
2021/04/01 08:38:25;;;;;;;12.75;3.05;;;;;;;11.61;64.02;101923.62;4450401;32;20692;-77
2021/04/01 08:40:52;;;;;;;15.65;2.87;;;;;;;11.25;64.50;101918.69;4449025;32;20084;-76
2021/04/01 08:52:19;;;;;;;13.97;3.50;;;;;;;11.90;63.24;101936.25;3991371;31;15015324;-76
2021/04/01 09:00:32;;;;;;;10.52;3.50;;;;;;;11.91;61.55;101937.84;3969199;32;15022935;-75
2021/04/01 09:02:58;;;;;;;6.25;2.37;;;;;;;11.91;61.55;101937.84;4409531;32;20050;-75
2021/04/01 09:05:24;;;;;;;9.73;2.70;;;;;;;11.41;62.46;101930.22;4408950;32;20080;-74
2021/04/01 09:10:38;;;;;;;10.65;3.40;;;;;;;11.48;63.06;101933.78;3970919;32;15023484;-76
2021/04/01 09:21:00;;;;;;;15.65;4.62;;;;;;;11.87;63.98;101939.91;3976436;32;15022831;-76
2021/04/01 09:26:11;;;;;;;12.43;3.30;;;;;;;11.63;63.97;101942.97;3992664;31;15018240;-76
2021/04/01 09:28:41;;;;;;;17.95;3.05;;;;;;;11.63;63.97;101942.97;4450242;32;20048;-76
2021/04/01 09:31:08;;;;;;;14.38;2.90;;;;;;;11.19;65.15;101942.88;4447446;32;20424;-77
2021/04/01 09:33:36;;;;;;;13.55;2.90;;;;;;;11.11;64.50;101933.69;4449363;32;20363;-76
2021/04/01 09:38:52;;;;;;;13.10;2.65;;;;;;;11.80;60.47;101942.00;3952341;32;15022416;-75
2021/04/01 09:41:27;;;;;;;13.13;3.78;;;;;;;11.80;60.47;101942.00;4400161;32;20046;-76
2021/04/01 09:43:52;;;;;;;12.98;3.92;;;;;;;11.50;61.14;101930.56;4400816;32;20035;-75
2021/04/01 09:46:21;;;;;;;20.88;3.70;;;;;;;11.59;60.83;101934.50;4400222;32;20104;-76
2021/04/01 09:48:54;;;;;;;14.70;3.67;;;;;;;11.70;60.00;101934.44;4397485;32;20136;-76
2021/04/01 09:51:21;;;;;;;15.80;4.07;;;;;;;11.75;58.97;101948.06;4398349;32;20458;-74
2021/04/01 09:53:52;;;;;;;20.58;4.20;;;;;;;11.60;59.70;101944.56;4398424;32;20461;-75
2021/04/01 09:56:23;;;;;;;22.08;4.20;;;;;;;11.79;58.86;101937.56;4396520;32;20527;-75
2021/04/01 09:58:51;;;;;;;16.65;4.87;;;;;;;11.77;59.59;101948.47;4396965;32;20077;-76
2021/04/01 10:01:35;;;;;;;19.15;5.65;;;;;;;11.87;58.98;101954.00;4392685;32;20074;-76
2021/04/01 10:06:42;;;;;;;9.88;4.20;;;;;;;12.42;56.94;101958.66;3970778;32;15026784;-74
2021/04/01 10:09:26;;;;;;;14.30;4.72;;;;;;;12.42;56.94;101958.66;4423787;32;20060;-74
2021/04/01 10:14:30;;;;;;;17.83;4.78;;;;;;;12.15;57.42;101964.19;3950861;32;15722541;-75
2021/04/01 10:17:00;;;;;;;14.87;4.82;;;;;;;12.13;56.61;101961.00;4428348;32;20136;-72
2021/04/01 10:19:30;;;;;;;17.65;4.53;;;;;;;12.27;56.37;101963.62;4429318;32;20581;-72
2021/04/01 10:21:56;;;;;;;14.52;4.00;;;;;;;12.38;56.11;101952.22;4429996;32;20156;-74
2021/04/01 10:32:34;;;;;;;20.65;7.60;;;;;;;13.06;53.53;101974.34;3978423;32;15024336;-74
2021/04/01 10:35:06;;;;;;;19.37;5.60;;;;;;;13.06;53.53;101974.34;4435911;32;20099;-75
2021/04/01 10:37:34;;;;;;;18.83;5.07;;;;;;;12.45;54.63;101969.88;4432606;32;20208;-74
2021/04/01 10:40:06;;;;;;;13.50;5.12;;;;;;;12.49;54.13;101958.56;4432097;32;20146;-74
2021/04/01 10:42:35;;;;;;;19.15;5.57;;;;;;;12.59;53.94;101977.38;4435586;32;20434;-75
2021/04/01 10:47:49;;;;;;;22.45;6.87;;;;;;;13.09;52.71;101976.31;3979263;32;15022486;-74
2021/04/01 10:50:15;;;;;;;22.10;6.12;;;;;;;13.09;52.71;101976.31;4432330;32;20052;-75
2021/04/01 10:52:42;;;;;;;18.83;6.45;;;;;;;12.82;53.12;101977.50;4432246;32;20096;-74
2021/04/01 10:55:08;;;;;;;15.40;5.97;;;;;;;12.85;52.89;101973.78;4430784;32;20068;-74
2021/04/01 10:57:35;;;;;;;18.60;5.30;;;;;;;12.94;53.16;101972.06;4435394;32;20147;-74
2021/04/01 11:00:08;;;;;;;17.65;4.37;;;;;;;12.96;52.72;101977.28;4432799;32;20037;-75
2021/04/01 11:02:38;;;;;;;17.40;4.90;;;;;;;13.19;52.23;101983.06;4417809;32;20104;-77
2021/04/01 11:05:15;;;;;;;15.77;4.62;;;;;;;13.28;51.78;101986.13;4407987;32;20091;-72
2021/04/01 11:07:46;;;;;;;19.60;4.75;;;;;;;13.43;51.20;101981.84;4416674;32;20115;-75
2021/04/01 11:12:59;;;;;;;24.25;5.35;;;;;;;13.65;50.95;101997.22;3979263;32;15024988;-75
2021/04/01 11:15:28;;;;;;;19.80;4.82;;;;;;;13.65;50.95;101997.22;4434470;32;20141;-74
2021/04/01 11:20:36;;;;;;;22.92;4.43;;;;;;;13.49;51.21;102008.41;3968574;32;15023373;-74
2021/04/01 11:28:49;;;;;;;18.02;4.00;;;;;;;13.23;51.37;102001.53;3974595;32;15034244;-75
2021/04/01 11:31:26;;;;;;;21.95;4.82;;;;;;;13.06;52.19;102002.59;4432535;32;20051;-75
2021/04/01 11:33:55;;;;;;;14.63;4.03;;;;;;;12.99;51.94;101997.06;4429938;32;20656;-75
2021/04/01 11:36:23;;;;;;;19.20;4.50;;;;;;;12.99;52.34;101999.03;4430309;32;20072;-75
2021/04/01 11:38:56;;;;;;;16.00;4.10;;;;;;;13.24;51.44;102008.00;4430337;32;20046;-75
2021/04/01 11:41:24;;;;;;;22.77;4.45;;;;;;;13.16;51.46;102012.94;4432510;32;20097;-75
2021/04/01 11:43:52;;;;;;;19.60;3.72;;;;;;;13.29;51.44;102010.34;4432379;32;20045;-75
2021/04/01 11:48:57;;;;;;;10.68;2.60;;;;;;;13.16;51.15;102003.69;3958834;32;15026459;-74
2021/04/01 11:51:26;;;;;;;15.02;3.55;;;;;;;13.01;51.55;102000.25;4413233;32;20068;-75
2021/04/01 11:53:52;;;;;;;15.50;3.78;;;;;;;13.10;51.61;101999.75;4411144;32;20099;-75
2021/04/01 11:56:19;;;;;;;18.90;3.75;;;;;;;13.15;51.16;102002.87;4413983;32;20074;-75
2021/04/01 11:58:45;;;;;;;10.95;3.30;;;;;;;13.20;51.07;102007.25;4411060;32;20087;-75
2021/04/01 12:01:21;;;;;;;28.35;3.62;;;;;;;13.09;51.01;102001.75;4407617;32;20123;-75
2021/04/01 12:06:27;;;;;;;15.93;3.75;;;;;;;13.42;51.16;102006.50;3978882;32;15038433;-75
2021/04/01 12:08:53;;;;;;;18.48;4.30;;;;;;;13.42;51.16;102006.50;4429545;32;20082;-76
2021/04/01 12:11:19;;;;;;;15.90;4.40;;;;;;;12.96;52.13;102000.69;4430208;32;20549;-76
2021/04/01 12:13:45;;;;;;;12.70;4.07;;;;;;;13.15;51.58;102008.53;4430897;32;20093;-76
2021/04/01 12:16:17;;;;;;;15.95;4.93;;;;;;;13.06;51.32;102016.72;4430804;32;20229;-75
2021/04/01 12:18:44;;;;;;;14.50;4.22;;;;;;;13.12;51.31;102006.56;4427692;32;20076;-74
2021/04/01 12:21:09;;;;;;;18.35;4.12;;;;;;;13.10;51.43;102000.50;4430153;32;20053;-74
2021/04/01 12:23:57;;;;;;;15.75;3.00;;;;;;;13.24;50.53;102011.62;4428113;32;20546;-74
2021/04/01 12:26:24;;;;;;;13.43;2.95;;;;;;;13.22;50.64;102013.25;4428978;32;20077;-74
2021/04/01 12:29:02;;;;;;;12.95;2.47;;;;;;;13.23;50.35;102018.50;4429705;32;20072;-74
2021/04/01 12:31:34;;;;;;;14.15;3.00;;;;;;;13.33;50.08;102008.25;4430351;32;20176;-75
2021/04/01 12:34:01;;;;;;;13.32;3.08;;;;;;;13.29;50.13;101997.00;4428983;32;20081;-75
2021/04/01 12:36:33;;;;;;;21.92;2.87;;;;;;;13.27;49.83;102010.78;4431456;32;20394;-75
2021/04/01 12:38:59;;;;;;;13.85;3.62;;;;;;;13.41;49.63;102010.53;4430736;32;20119;-75
2021/04/01 12:41:30;;;;;;;10.63;3.45;;;;;;;13.32;49.64;102004.62;4429861;32;20462;-77
2021/04/01 12:43:57;;;;;;;14.98;2.85;;;;;;;13.52;48.85;102016.03;4427773;32;20096;-75
2021/04/01 12:46:34;;;;;;;19.15;2.83;;;;;;;13.59;48.67;102010.25;4429457;32;20161;-75
2021/04/01 12:49:01;;;;;;;14.73;3.53;;;;;;;13.62;48.82;102012.22;4428921;32;20104;-75
2021/04/01 12:51:26;;;;;;;12.93;3.87;;;;;;;13.66;48.43;102013.00;4424600;32;20581;-75
2021/04/01 12:54:05;;;;;;;14.38;3.10;;;;;;;13.82;48.29;102010.28;4428589;32;20045;-77
2021/04/01 12:56:35;;;;;;;13.95;3.05;;;;;;;13.82;47.68;102013.94;4430498;32;20041;-75
2021/04/01 13:01:43;;;;;;;20.20;3.75;;;;;;;13.97;48.17;102020.91;3959831;32;15024251;-75
2021/04/01 13:04:11;;;;;;;13.62;3.05;;;;;;;13.97;48.17;102020.91;4412237;32;20069;-75
2021/04/01 13:06:59;;;;;;;13.52;3.30;;;;;;;13.73;48.23;102012.87;4411719;32;20103;-76
2021/04/01 13:09:32;;;;;;;;;;;;;;;13.67;47.69;102017.41;4411286;32;20045;-77
2021/04/01 13:12:14;;;;;;;9.82;2.55;;;;;;;13.80;47.64;102016.37;4409973;32;19956;-75
2021/04/01 13:14:41;;;;;;;25.42;3.80;;;;;;;13.78;47.43;102018.06;4416428;32;20153;-75
2021/04/01 13:17:07;;;;;;;15.95;3.47;;;;;;;14.06;47.08;102015.50;4411721;32;20417;-74
2021/04/01 13:19:33;;;;;;;12.02;3.83;;;;;;;14.30;46.34;102019.13;4413017;32;20109;-75
2021/04/01 13:25:08;;;;;;;12.32;2.55;;;;;;;14.85;45.16;102027.72;3966768;32;15026118;-78
2021/04/01 13:27:25;;;;;;;;;;;;;;;14.85;45.16;102027.72;4413630;32;20037;-79
2021/04/01 13:29:55;;;;;;;14.30;3.17;;;;;;;14.62;45.17;102016.50;4417582;32;19988;-75
2021/04/01 13:32:33;;;;;;;14.32;3.35;;;;;;;14.74;44.87;102027.19;4416717;32;20068;-76
2021/04/01 13:35:07;;;;;;;15.52;2.95;;;;;;;14.87;44.18;102019.59;4420051;32;20104;-78
2021/04/01 13:40:21;;;;;;;14.50;3.23;;;;;;;15.67;42.21;102028.31;3988897;31;15016534;-76
2021/04/01 13:42:53;;;;;;;20.45;3.30;;;;;;;15.67;42.21;102028.31;4457118;32;20053;-75
2021/04/01 13:45:22;;;;;;;10.38;2.20;;;;;;;15.18;43.04;102017.28;4458244;32;20041;-76
2021/04/01 13:47:56;;;;;;;13.75;2.65;;;;;;;15.23;43.26;102028.12;4455543;32;20104;-76
2021/04/01 13:50:24;;;;;;;14.98;2.22;;;;;;;15.50;42.24;102040.09;4457419;32;20151;-75
2021/04/01 13:55:40;;;;;;;13.52;2.50;;;;;;;15.71;41.94;102029.00;4458270;32;20063;-75
2021/04/01 13:59:21;;;;;;;11.30;2.30;;;;;;;15.83;41.75;102030.34;4454960;32;20080;-77
2021/04/01 14:01:14;;;;;;;13.55;2.90;;;;;;;16.20;40.88;102023.31;4455409;32;20069;-76
2021/04/01 14:11:44;;;;;;;13.95;3.25;;;;;;;17.19;39.04;102019.22;3972020;32;15021520;-74
2021/04/01 14:14:11;;;;;;;13.43;2.72;;;;;;;17.19;39.04;102019.22;4425834;32;20129;-75
2021/04/01 14:16:40;;;;;;;12.13;2.50;;;;;;;16.70;38.96;102006.50;4430735;32;20097;-74